createdAt,value
2023-04-18T00:00:57.204Z,11.33
2023-04-18T00:03:59.986Z,11.67
2023-04-18T00:07:06.673Z,12.63
2023-04-18T00:10:11.577Z,14.77
2023-04-18T00:13:14.320Z,14.90
2023-04-18T00:16:17.031Z,14.10
2023-04-18T00:19:20.168Z,14.13
2023-04-18T00:22:23.613Z,13.30
2023-04-18T00:25:27.811Z,13.63
2023-04-18T00:28:30.575Z,12.70
2023-04-18T00:31:33.313Z,14.70
2023-04-18T00:34:36.118Z,12.20
2023-04-18T00:37:38.787Z,12.60
2023-04-18T00:40:42.861Z,12.90
2023-04-18T00:43:45.564Z,13.30
2023-04-18T00:46:48.326Z,12.40
2023-04-18T00:49:51.532Z,12.37
2023-04-18T00:52:54.838Z,12.93
2023-04-18T00:55:58.967Z,12.60
2023-04-18T00:59:01.870Z,12.47
2023-04-18T01:02:05.402Z,10.77
2023-04-18T01:05:39.604Z,10.80
2023-04-18T01:08:43.716Z,10.60
2023-04-18T01:11:47.769Z,9.30
2023-04-18T01:14:50.652Z,10.20
2023-04-18T01:17:53.505Z,10.00
2023-04-18T01:20:57.080Z,10.83
2023-04-18T01:24:05.577Z,11.43
2023-04-18T01:27:13.340Z,12.40
2023-04-18T01:30:16.277Z,10.30
2023-04-18T01:33:18.912Z,10.57
2023-04-18T01:36:21.696Z,11.30
2023-04-18T01:39:24.369Z,13.40
2023-04-18T01:42:28.365Z,14.97
2023-04-18T01:45:33.669Z,13.83
2023-04-18T01:48:36.394Z,12.93
2023-04-18T01:51:39.866Z,11.80
2023-04-18T01:54:42.564Z,11.50
2023-04-18T01:57:46.559Z,11.50
2023-04-18T02:00:49.334Z,11.40
2023-04-18T02:03:52.071Z,10.43
2023-04-18T02:06:54.904Z,10.87
2023-04-18T02:09:57.594Z,10.50
2023-04-18T02:13:04.271Z,10.43
2023-04-18T02:16:14.059Z,10.97
2023-04-18T02:19:16.738Z,10.73
2023-04-18T02:22:19.643Z,10.63
2023-04-18T02:25:23.629Z,10.43
2023-04-18T02:28:27.654Z,9.77
2023-04-18T02:31:30.391Z,10.57
2023-04-18T02:34:33.778Z,10.43
2023-04-18T02:37:36.605Z,11.00
2023-04-18T02:40:39.245Z,11.40
2023-04-18T02:43:43.290Z,11.33
2023-04-18T02:46:45.983Z,11.67
2023-04-18T02:49:48.739Z,11.53
2023-04-18T02:52:51.427Z,11.30
2023-04-18T02:55:54.086Z,11.77
2023-04-18T02:58:58.068Z,11.17
2023-04-18T03:02:02.202Z,11.43
2023-04-18T03:05:05.317Z,12.07
2023-04-18T03:08:08.285Z,10.73
2023-04-18T03:11:10.934Z,11.60
2023-04-18T03:14:15.484Z,11.50
2023-04-18T03:21:40.075Z,10.87
2023-04-18T03:24:43.458Z,10.73
2023-04-18T03:27:46.140Z,11.63
2023-04-18T03:30:50.624Z,11.67
2023-04-18T03:33:53.362Z,10.30
2023-04-18T03:36:56.032Z,10.73
2023-04-18T03:39:58.680Z,10.93
2023-04-18T03:43:01.271Z,12.03
2023-04-18T03:46:06.336Z,12.43
2023-04-18T03:49:08.973Z,14.93
2023-04-18T03:52:11.642Z,13.37
2023-04-18T03:55:14.465Z,14.23
2023-04-18T03:58:18.024Z,12.97
2023-04-18T04:01:22.006Z,13.23
2023-04-18T04:04:25.396Z,12.10
2023-04-18T04:07:28.042Z,12.20
2023-04-18T04:10:31.212Z,13.30
2023-04-18T04:13:34.318Z,13.43
2023-04-18T04:16:38.480Z,14.23
2023-04-18T04:19:41.159Z,14.23
2023-04-18T04:22:43.860Z,15.47
2023-04-18T04:25:46.705Z,15.07
2023-04-18T04:28:50.318Z,14.93
2023-04-18T04:31:54.312Z,14.40
2023-04-18T04:34:57.296Z,14.73
2023-04-18T04:38:01.548Z,14.97
2023-04-18T04:41:04.185Z,15.20
2023-04-18T04:44:07.148Z,14.10
2023-04-18T04:47:11.174Z,13.60
2023-04-18T04:50:15.773Z,13.77
2023-04-18T04:53:18.487Z,14.00
2023-04-18T04:56:22.757Z,14.07
2023-04-18T04:59:25.943Z,12.57
2023-04-18T05:02:30.083Z,13.97
2023-04-18T05:05:32.839Z,13.07
2023-04-18T05:08:35.544Z,13.37
2023-04-18T05:11:38.166Z,11.73
2023-04-18T05:14:41.200Z,10.27
2023-04-18T05:17:45.398Z,10.37
2023-04-18T05:20:48.137Z,10.97
2023-04-18T05:23:51.390Z,11.00
2023-04-18T05:26:54.646Z,10.73
2023-04-18T05:29:57.361Z,13.10
2023-04-18T05:33:02.182Z,14.10
2023-04-18T05:36:05.576Z,10.87
2023-04-18T05:39:08.279Z,12.00
2023-04-18T05:42:10.945Z,11.70
2023-04-18T05:45:13.755Z,11.13
2023-04-18T05:48:17.782Z,12.80
2023-04-18T05:51:20.520Z,9.80
2023-04-18T05:54:23.185Z,10.53
2023-04-18T05:57:25.865Z,11.03
2023-04-18T06:00:28.860Z,11.67
2023-04-18T06:03:33.050Z,10.77
2023-04-18T06:06:36.219Z,10.73
2023-04-18T06:09:38.901Z,10.47
2023-04-18T06:12:41.632Z,10.23
2023-04-18T06:15:44.333Z,12.40
2023-04-18T06:18:48.383Z,11.03
2023-04-18T06:21:51.318Z,10.93
2023-04-18T06:24:55.436Z,10.93
2023-04-18T06:27:58.087Z,10.53
2023-04-18T06:31:00.770Z,10.00
2023-04-18T06:34:04.769Z,10.37
2023-04-18T06:37:07.763Z,9.97
2023-04-18T06:40:11.583Z,9.67
2023-04-18T06:43:14.279Z,10.43
2023-04-18T06:46:17.044Z,8.83
2023-04-18T06:49:25.200Z,9.53
2023-04-18T06:52:29.182Z,9.23
2023-04-18T06:55:31.929Z,11.10
2023-04-18T06:58:34.749Z,9.90
2023-04-18T07:01:41.364Z,10.20
2023-04-18T07:04:45.557Z,10.30
2023-04-18T07:07:48.291Z,9.33
2023-04-18T07:10:51.332Z,9.67
2023-04-18T07:13:54.212Z,9.03
2023-04-18T07:16:57.637Z,9.47
2023-04-18T07:20:01.915Z,9.43
2023-04-18T07:23:04.749Z,9.73
2023-04-18T07:26:09.601Z,7.73
2023-04-18T07:29:12.282Z,8.40
2023-04-18T07:32:22.352Z,8.33
2023-04-18T07:35:26.443Z,8.80
2023-04-18T07:38:29.245Z,8.67
2023-04-18T07:41:31.990Z,9.10
2023-04-18T07:44:36.384Z,8.53
2023-04-18T07:47:39.058Z,9.70
2023-04-18T07:50:48.776Z,9.57
2023-04-18T07:53:51.405Z,9.10
2023-04-18T07:56:54.041Z,9.73
2023-04-18T07:59:56.890Z,7.97
2023-04-18T08:02:59.825Z,8.63
2023-04-18T08:06:05.902Z,8.60
2023-04-18T08:09:09.102Z,8.40
2023-04-18T08:12:11.777Z,7.90
2023-04-18T08:15:17.485Z,7.97
2023-04-18T08:18:20.798Z,8.20
2023-04-18T08:21:24.798Z,7.77
2023-04-18T08:24:27.822Z,7.80
2023-04-18T08:27:31.364Z,6.57
2023-04-18T08:30:34.064Z,7.27
2023-04-18T08:33:37.121Z,7.63
2023-04-18T08:36:41.117Z,6.30
2023-04-18T08:39:44.832Z,7.57
2023-04-18T08:42:47.616Z,7.63
2023-04-18T08:45:50.721Z,7.77
2023-04-18T08:48:53.718Z,6.07
2023-04-18T08:51:59.626Z,7.67
2023-04-18T08:55:03.878Z,7.80
2023-04-18T08:58:06.880Z,9.43
2023-04-18T09:01:10.296Z,7.90
2023-04-18T09:04:14.117Z,9.43
2023-04-18T09:07:18.909Z,6.63
2023-04-18T09:10:29.930Z,10.57
2023-04-18T09:13:39.857Z,8.20
2023-04-18T09:16:47.952Z,6.17
2023-04-18T09:19:50.957Z,6.53
2023-04-18T09:22:57.770Z,9.27
2023-04-18T09:26:00.414Z,9.37
2023-04-18T09:29:03.307Z,5.60
2023-04-18T09:32:06.478Z,6.40
2023-04-18T09:35:09.708Z,6.00
2023-04-18T09:38:13.699Z,7.13
2023-04-18T09:41:19.945Z,5.67
2023-04-18T09:44:23.992Z,4.93
2023-04-18T09:47:27.764Z,5.70
2023-04-18T09:50:31.255Z,5.70
2023-04-18T09:53:40.489Z,3.37
2023-04-18T09:56:45.729Z,5.00
2023-04-18T09:59:52.617Z,5.30
2023-04-18T10:03:09.833Z,6.53
2023-04-18T10:06:13.000Z,8.80
2023-04-18T10:09:17.274Z,16.47
2023-04-18T10:12:20.590Z,7.43
2023-04-18T10:15:28.506Z,29.33
2023-04-18T10:18:31.205Z,6.80
2023-04-18T10:21:35.442Z,12.07
2023-04-18T10:24:49.960Z,15.87
2023-04-18T10:28:00.455Z,6.07
2023-04-18T10:31:05.548Z,4.63
2023-04-18T10:34:08.507Z,5.40
2023-04-18T10:37:12.786Z,6.50
2023-04-18T10:40:17.680Z,7.17
2023-04-18T10:43:20.704Z,7.00
2023-04-18T10:46:31.746Z,10.70
2023-04-18T10:49:37.629Z,10.67
2023-04-18T10:52:40.597Z,5.20
2023-04-18T10:55:50.685Z,9.83
2023-04-18T10:58:54.222Z,8.33
2023-04-18T11:01:58.449Z,4.70
2023-04-18T11:05:04.763Z,3.93
2023-04-18T11:08:23.501Z,5.30
2023-04-18T11:11:27.687Z,4.80
2023-04-18T11:14:40.486Z,4.07
2023-04-18T11:17:43.245Z,4.37
2023-04-18T11:20:49.327Z,4.20
2023-04-18T11:23:52.417Z,4.80
2023-04-18T11:26:57.017Z,5.13
2023-04-18T11:29:59.997Z,3.90
2023-04-18T11:33:06.481Z,4.20
2023-04-18T11:36:09.948Z,4.63
2023-04-18T11:39:12.923Z,5.53
2023-04-18T11:42:17.606Z,5.10
2023-04-18T11:45:20.848Z,4.40
2023-04-18T11:48:24.224Z,4.20
2023-04-18T11:51:35.723Z,4.67
2023-04-18T11:54:43.046Z,4.20
2023-04-18T11:57:55.198Z,4.30
2023-04-18T12:00:58.774Z,4.73
2023-04-18T12:04:03.401Z,4.90
2023-04-18T12:07:06.652Z,6.00
2023-04-18T12:10:11.214Z,5.20
2023-04-18T12:13:16.019Z,4.67
2023-04-18T12:16:18.790Z,5.37
2023-04-18T12:19:21.678Z,4.37
2023-04-18T12:22:42.961Z,4.53
2023-04-18T12:25:45.784Z,6.10
2023-04-18T12:28:51.392Z,5.87
2023-04-18T12:31:54.283Z,4.83
2023-04-18T12:34:57.522Z,5.13
2023-04-18T12:38:02.159Z,5.60
2023-04-18T12:41:05.509Z,7.47
2023-04-18T12:44:10.132Z,6.47
2023-04-18T12:47:13.012Z,6.23
2023-04-18T12:50:20.527Z,4.23
2023-04-18T12:53:23.204Z,5.20
2023-04-18T12:56:25.870Z,6.50
2023-04-18T12:59:30.189Z,5.10
2023-04-18T13:02:37.223Z,5.97
2023-04-18T13:05:40.136Z,7.00
2023-04-18T13:08:42.862Z,4.97
2023-04-18T13:11:49.512Z,4.70
2023-04-18T13:14:53.739Z,4.43
2023-04-18T13:17:57.179Z,4.87
2023-04-18T13:20:59.856Z,5.37
2023-04-18T13:24:03.131Z,5.13
2023-04-18T13:27:10.341Z,4.70
2023-04-18T13:30:14.740Z,4.43
2023-04-18T13:33:18.045Z,3.80
2023-04-18T13:36:21.190Z,4.03
2023-04-18T13:39:24.884Z,4.33
2023-04-18T13:42:27.764Z,4.43
2023-04-18T13:45:32.097Z,3.50
2023-04-18T13:48:34.878Z,4.80
2023-04-18T13:51:37.498Z,4.70
2023-04-18T13:54:41.335Z,3.07
2023-04-18T13:57:44.086Z,4.33
2023-04-18T14:00:48.070Z,4.20
2023-04-18T14:03:51.171Z,4.20
2023-04-18T14:06:54.015Z,4.10
2023-04-18T14:09:56.668Z,4.20
2023-04-18T14:12:59.314Z,3.60
2023-04-18T14:16:03.772Z,4.20
2023-04-18T14:19:06.725Z,4.00
2023-04-18T14:22:09.406Z,3.87
2023-04-18T14:25:14.320Z,3.90
2023-04-18T14:28:19.042Z,5.53
2023-04-18T14:31:23.139Z,4.23
2023-04-18T14:34:25.870Z,4.23
2023-04-18T14:37:28.740Z,4.40
2023-04-18T14:40:32.981Z,4.03
2023-04-18T14:43:35.820Z,4.57
2023-04-18T14:46:39.968Z,3.77
2023-04-18T14:49:42.798Z,3.37
2023-04-18T14:52:46.356Z,3.60
2023-04-18T14:55:49.065Z,4.43
2023-04-18T14:58:51.707Z,3.87
2023-04-18T15:01:56.219Z,4.00
2023-04-18T15:04:59.103Z,3.80
2023-04-18T15:08:02.055Z,4.13
2023-04-18T15:11:07.201Z,4.10
2023-04-18T15:14:10.674Z,4.80
2023-04-18T15:17:14.753Z,15.07
2023-04-18T15:20:17.559Z,6.13
2023-04-18T15:23:20.842Z,4.83
2023-04-18T15:26:24.776Z,8.77
2023-04-18T15:29:27.506Z,5.57
2023-04-18T15:32:31.581Z,5.13
2023-04-18T15:35:34.208Z,2.90
2023-04-18T15:38:36.936Z,4.50
2023-04-18T15:41:42.045Z,4.20
2023-04-18T15:44:44.808Z,4.47
2023-04-18T15:47:48.908Z,11.30
2023-04-18T15:50:52.368Z,5.53
2023-04-18T15:53:55.170Z,2.57
2023-04-18T15:56:58.216Z,4.33
2023-04-18T16:00:00.984Z,4.80
2023-04-18T16:03:05.695Z,3.70
2023-04-18T16:06:09.794Z,4.77
2023-04-18T16:09:12.513Z,4.47
2023-04-18T16:12:15.126Z,4.20
2023-04-18T16:15:18.016Z,4.20
2023-04-18T16:18:22.120Z,4.60
2023-04-18T16:21:25.867Z,4.40
2023-04-18T16:24:30.238Z,4.60
2023-04-18T16:27:33.467Z,4.37
2023-04-18T16:30:36.252Z,3.40
2023-04-18T16:33:40.250Z,4.23
2023-04-18T16:36:42.974Z,5.03
2023-04-18T16:39:45.974Z,4.80
2023-04-18T16:42:48.669Z,6.50
2023-04-18T16:45:51.408Z,4.20
2023-04-18T16:48:55.605Z,5.83
2023-04-18T16:51:58.402Z,4.93
2023-04-18T16:55:01.024Z,6.43
2023-04-18T16:58:04.023Z,5.57
2023-04-18T17:01:08.080Z,7.37
2023-04-18T17:04:12.646Z,6.27
2023-04-18T17:07:15.609Z,4.50
2023-04-18T17:10:18.699Z,7.40
2023-04-18T17:13:22.372Z,6.93
2023-04-18T17:16:25.246Z,6.80
2023-04-18T17:19:29.300Z,8.83
2023-04-18T17:22:32.290Z,7.53
2023-04-18T17:25:34.938Z,6.90
2023-04-18T17:28:37.958Z,6.83
2023-04-18T17:31:40.744Z,6.17
2023-04-18T17:34:44.737Z,7.70
2023-04-18T17:37:47.845Z,7.27
2023-04-18T17:40:59.357Z,7.37
2023-04-18T17:44:02.286Z,5.70
2023-04-18T17:47:05.470Z,7.03
2023-04-18T17:50:10.330Z,6.97
2023-04-18T17:53:13.135Z,8.63
2023-04-18T17:56:16.376Z,7.80
2023-04-18T17:59:19.115Z,7.97
2023-04-18T18:02:23.323Z,7.53
2023-04-18T18:05:27.748Z,8.37
2023-04-18T18:08:30.681Z,8.53
2023-04-18T18:11:33.634Z,8.50
2023-04-18T18:14:36.455Z,8.13
2023-04-18T18:17:39.178Z,8.73
2023-04-18T18:20:43.877Z,8.13
2023-04-18T18:23:46.597Z,7.87
2023-04-18T18:26:51.506Z,9.77
2023-04-18T18:29:54.453Z,9.17
2023-04-18T18:32:57.549Z,8.03
2023-04-18T18:36:01.824Z,8.50
2023-04-18T18:39:04.738Z,8.00
2023-04-18T18:42:08.065Z,8.37
2023-04-18T18:45:11.164Z,8.90
2023-04-18T18:48:15.337Z,9.37
2023-04-18T18:51:19.929Z,10.30
2023-04-18T18:54:22.863Z,10.73
2023-04-18T18:57:26.109Z,9.53
2023-04-18T19:00:28.849Z,9.70
2023-04-18T19:03:31.699Z,10.47
2023-04-18T19:06:36.412Z,9.10
2023-04-18T19:09:39.067Z,11.60
2023-04-18T19:12:42.846Z,11.17
2023-04-18T19:15:45.708Z,10.97
2023-04-18T19:18:50.445Z,9.93
2023-04-18T19:21:54.454Z,11.03
2023-04-18T19:24:57.295Z,11.70
2023-04-18T19:28:00.017Z,10.47
2023-04-18T19:31:03.429Z,10.47
2023-04-18T19:34:06.109Z,9.20
2023-04-18T19:37:10.127Z,10.73
2023-04-18T19:40:15.038Z,10.83
2023-04-18T19:43:18.054Z,10.53
2023-04-18T19:46:20.723Z,10.87
2023-04-18T19:49:23.414Z,10.03
2023-04-18T19:52:27.776Z,9.93
2023-04-18T19:55:31.588Z,10.27
2023-04-18T19:58:36.005Z,10.83
2023-04-18T20:01:38.789Z,10.33
2023-04-18T20:04:41.912Z,8.90
2023-04-18T20:07:46.356Z,9.30
2023-04-18T20:10:49.016Z,9.33
2023-04-18T20:13:52.297Z,8.57
2023-04-18T20:16:55.950Z,9.10
2023-04-18T20:19:59.650Z,8.57
2023-04-18T20:23:03.800Z,8.50
2023-04-18T20:26:06.596Z,8.30
2023-04-18T20:29:09.263Z,8.47
2023-04-18T20:32:12.380Z,8.90
2023-04-18T20:35:15.009Z,9.73
2023-04-18T20:38:20.115Z,8.23
2023-04-18T20:41:24.211Z,7.73
2023-04-18T20:44:28.057Z,8.23
2023-04-18T20:47:30.941Z,8.13
2023-04-18T20:50:33.616Z,8.80
2023-04-18T20:53:37.650Z,8.47
2023-04-18T20:56:40.608Z,7.73
2023-04-18T20:59:43.244Z,6.97
2023-04-18T21:02:46.118Z,6.67
2023-04-18T21:05:48.820Z,6.63
2023-04-18T21:08:53.083Z,5.37
2023-04-18T21:11:55.716Z,5.90
2023-04-18T21:14:58.380Z,5.80
2023-04-18T21:18:01.107Z,5.50
2023-04-18T21:21:03.836Z,5.50
2023-04-18T21:24:08.147Z,5.57
2023-04-18T21:27:11.396Z,5.30
2023-04-18T21:30:14.803Z,5.57
2023-04-18T21:33:17.541Z,5.60
2023-04-18T21:36:20.563Z,5.90
2023-04-18T21:39:24.704Z,5.90
2023-04-18T21:42:27.378Z,5.50
2023-04-18T21:45:30.097Z,5.13
2023-04-18T21:48:32.816Z,5.43
2023-04-18T21:51:35.452Z,5.43
2023-04-18T21:54:40.246Z,5.50
2023-04-18T21:57:42.992Z,5.73
2023-04-18T22:00:45.968Z,5.77
2023-04-18T22:03:48.828Z,4.90
2023-04-18T22:06:54.063Z,5.80
2023-04-18T22:09:59.709Z,5.53
2023-04-18T22:13:04.373Z,4.80
2023-04-18T22:16:08.348Z,5.37
2023-04-18T22:19:11.414Z,5.23
2023-04-18T22:22:14.063Z,5.50
2023-04-18T22:25:18.146Z,5.00
2023-04-18T22:28:22.803Z,4.77
2023-04-18T22:31:25.833Z,5.27
2023-04-18T22:34:28.535Z,5.03
2023-04-18T22:37:31.382Z,5.47
2023-04-18T22:40:37.921Z,5.37
2023-04-18T22:43:40.584Z,4.57
2023-04-18T22:46:44.814Z,5.50
2023-04-18T22:49:47.697Z,5.60
2023-04-18T22:52:51.102Z,5.03
2023-04-18T22:55:55.413Z,4.77
2023-04-18T22:58:58.164Z,4.80
2023-04-18T23:02:02.256Z,4.60
2023-04-18T23:05:06.008Z,3.90
2023-04-18T23:08:08.727Z,4.33
2023-04-18T23:11:12.750Z,5.03
2023-04-18T23:14:16.951Z,4.63
2023-04-18T23:17:19.765Z,4.67
2023-04-18T23:20:25.486Z,4.83
2023-04-18T23:23:28.236Z,4.67
2023-04-18T23:26:32.326Z,4.13
2023-04-18T23:29:37.680Z,4.80
2023-04-18T23:32:40.717Z,4.60
2023-04-18T23:35:43.516Z,4.17
2023-04-18T23:38:46.755Z,4.50
2023-04-18T23:41:51.411Z,4.63
2023-04-18T23:44:54.655Z,4.40
2023-04-18T23:47:57.385Z,4.73
2023-04-18T23:51:00.368Z,4.60
2023-04-18T23:54:03.698Z,4.33
2023-04-18T23:57:07.707Z,4.00
